Terminal Aerodrome Forecast
Issued by NWS Albany, NY

Home | Current Version | Previous Version | Text Only | Print | Product List | Glossary On
Versions: 1 2 3 4 5 6 7 8 9 10 11 12 13 14 15 16 17 18 19 20 21 22 23 24 25 26 27 28 29
453
FTUS41 KALY 112330
TAFGFL
TAF
KGFL 112330Z 1200/1224 30014G22KT P6SM VCSH BKN080 OVC120
     FM120200 31010KT P6SM FEW050 BKN120
     FM120600 VRB03KT P6SM SKC
     FM121400 19005KT P6SM BKN050
     FM121800 20010KT P6SM VCSH OVC040=

USA.gov is the U.S. government's official web portal to all federal, state and local government web resources and services.